createdAt,value
2023-03-26T00:01:33.944Z,18.55
2023-03-26T00:04:01.807Z,17.52
2023-03-26T00:06:31.884Z,17.98
2023-03-26T00:08:59.157Z,17.38
2023-03-26T00:11:28.588Z,15.95
2023-03-26T00:13:58.103Z,17.05
2023-03-26T00:16:28.484Z,13.80
2023-03-26T00:18:57.854Z,16.60
2023-03-26T00:21:28.389Z,20.30
2023-03-26T00:23:59.751Z,15.00
2023-03-26T00:26:29.739Z,15.43
2023-03-26T00:28:58.500Z,14.23
2023-03-26T00:31:26.154Z,14.38
2023-03-26T00:33:55.786Z,14.63
2023-03-26T00:36:25.843Z,13.98
2023-03-26T00:38:54.337Z,17.73
2023-03-26T00:41:26.126Z,18.23
2023-03-26T00:43:57.001Z,20.63
2023-03-26T00:46:25.776Z,18.13
2023-03-26T00:48:53.148Z,14.43
2023-03-26T00:51:21.696Z,15.65
2023-03-26T00:53:50.904Z,16.48
2023-03-26T00:56:19.133Z,20.27
2023-03-26T00:58:48.212Z,13.85
2023-03-26T01:01:19.115Z,18.80
2023-03-26T01:03:56.763Z,14.80
2023-03-26T01:06:36.657Z,20.65
2023-03-26T01:09:14.498Z,17.02
2023-03-26T01:11:42.392Z,21.63
2023-03-26T01:14:14.746Z,23.13
2023-03-26T01:16:50.217Z,24.83
2023-03-26T01:19:24.364Z,21.90
2023-03-26T01:21:52.326Z,19.75
2023-03-26T01:24:19.604Z,22.65
2023-03-26T01:26:54.955Z,25.05
2023-03-26T01:29:28.895Z,24.77
2023-03-26T01:32:05.788Z,27.35
2023-03-26T01:34:49.766Z,22.77
2023-03-26T01:39:53.884Z,24.33
2023-03-26T01:42:29.449Z,20.60
2023-03-26T01:45:03.514Z,22.63
2023-03-26T01:47:32.387Z,24.58
2023-03-26T01:49:59.534Z,20.63
2023-03-26T01:52:27.673Z,23.85
2023-03-26T01:54:55.994Z,34.08
2023-03-26T01:57:30.304Z,20.35
2023-03-26T02:00:21.026Z,24.17
2023-03-26T02:02:52.324Z,24.15
2023-03-26T02:05:26.262Z,22.05
2023-03-26T02:08:02.268Z,26.98
2023-03-26T02:10:33.923Z,30.20
2023-03-26T02:13:01.495Z,24.30
2023-03-26T02:15:28.752Z,31.90
2023-03-26T02:17:56.179Z,25.13
2023-03-26T02:20:23.430Z,32.85
2023-03-26T02:22:50.689Z,21.02
2023-03-26T02:25:21.805Z,28.48
2023-03-26T02:27:52.904Z,33.58
2023-03-26T02:30:25.919Z,31.92
2023-03-26T02:32:59.606Z,28.75
2023-03-26T02:35:34.369Z,25.20
2023-03-26T02:38:03.017Z,24.13
2023-03-26T02:40:30.258Z,32.88
2023-03-26T02:42:58.872Z,25.15
2023-03-26T02:45:27.347Z,30.52
2023-03-26T02:48:15.486Z,22.70
2023-03-26T02:50:46.220Z,29.25
2023-03-26T02:53:15.381Z,30.33
2023-03-26T02:55:46.589Z,32.33
2023-03-26T02:58:17.393Z,27.65
2023-03-26T03:00:47.261Z,33.58
2023-03-26T03:03:28.308Z,33.05
2023-03-26T03:05:58.158Z,29.77
2023-03-26T03:08:31.558Z,36.40
2023-03-26T03:11:16.408Z,31.85
2023-03-26T03:13:46.712Z,35.63
2023-03-26T03:16:20.144Z,31.85
2023-03-26T03:18:54.944Z,29.17
2023-03-26T03:21:27.101Z,29.33
2023-03-26T03:23:56.105Z,26.27
2023-03-26T03:26:30.171Z,29.30
2023-03-26T03:29:01.504Z,32.67
2023-03-26T03:31:29.195Z,33.90
2023-03-26T03:34:02.933Z,32.08
2023-03-26T03:36:33.913Z,30.27
2023-03-26T03:39:07.744Z,32.20
2023-03-26T03:41:36.713Z,27.25
2023-03-26T03:44:06.684Z,31.52
2023-03-26T03:46:34.624Z,36.92
2023-03-26T03:49:02.367Z,30.10
2023-03-26T03:51:35.326Z,34.70
2023-03-26T03:54:05.937Z,37.85
2023-03-26T03:56:53.218Z,36.50
2023-03-26T03:59:35.960Z,32.03
2023-03-26T04:02:06.372Z,28.23
2023-03-26T04:04:40.625Z,26.70
2023-03-26T04:07:09.847Z,32.22
2023-03-26T04:09:56.180Z,33.20
2023-03-26T04:12:25.062Z,29.00
2023-03-26T04:14:59.230Z,29.17
2023-03-26T04:17:27.430Z,36.90
2023-03-26T04:19:56.564Z,42.88
2023-03-26T04:22:34.769Z,39.65
2023-03-26T04:25:05.408Z,36.75
2023-03-26T04:27:44.296Z,41.92
2023-03-26T04:32:58.650Z,28.60
2023-03-26T04:35:34.588Z,35.10
2023-03-26T04:38:06.600Z,32.95
2023-03-26T04:40:39.198Z,36.97
2023-03-26T04:43:12.413Z,37.65
2023-03-26T04:46:02.960Z,34.40
2023-03-26T04:48:33.133Z,39.38
2023-03-26T04:51:01.372Z,40.33
2023-03-26T04:53:28.941Z,42.63
2023-03-26T04:56:03.821Z,34.55
2023-03-26T04:58:51.939Z,36.67
2023-03-26T05:01:21.716Z,31.60
2023-03-26T05:03:49.114Z,41.80
2023-03-26T05:06:17.902Z,32.28
2023-03-26T05:08:46.585Z,38.45
2023-03-26T05:11:28.316Z,33.75
2023-03-26T05:13:57.555Z,32.30
2023-03-26T05:16:25.267Z,37.92
2023-03-26T05:18:58.303Z,30.65
2023-03-26T05:21:31.174Z,27.20
2023-03-26T05:23:58.635Z,34.53
2023-03-26T05:26:26.340Z,37.35
2023-03-26T05:28:53.748Z,30.48
2023-03-26T05:31:27.375Z,31.98
2023-03-26T05:33:58.238Z,42.50
2023-03-26T05:36:26.309Z,38.67
2023-03-26T05:39:05.038Z,38.17
2023-03-26T05:41:33.914Z,32.90
2023-03-26T05:44:01.295Z,42.53
2023-03-26T05:46:31.630Z,37.75
2023-03-26T05:48:59.831Z,49.75
2023-03-26T05:51:33.573Z,23.80
2023-03-26T05:54:19.103Z,28.30
2023-03-26T05:56:48.000Z,23.05
2023-03-26T05:59:16.713Z,21.95
2023-03-26T06:01:45.673Z,17.25
2023-03-26T06:04:32.958Z,18.88
2023-03-26T06:07:02.330Z,18.23
2023-03-26T06:09:29.700Z,20.10
2023-03-26T06:11:57.051Z,20.10
2023-03-26T06:14:24.258Z,23.80
2023-03-26T06:16:53.089Z,25.95
2023-03-26T06:19:21.990Z,30.27
2023-03-26T06:21:56.020Z,29.83
2023-03-26T06:24:28.674Z,39.88
2023-03-26T06:27:15.800Z,35.40
2023-03-26T06:29:44.661Z,37.90
2023-03-26T06:32:20.346Z,35.10
2023-03-26T06:34:53.242Z,33.75
2023-03-26T06:37:20.637Z,43.45
2023-03-26T06:39:49.714Z,35.33
2023-03-26T06:42:20.191Z,36.67
2023-03-26T06:44:49.022Z,33.90
2023-03-26T06:47:17.730Z,29.75
2023-03-26T06:49:46.523Z,36.95
2023-03-26T06:52:34.104Z,33.10
2023-03-26T06:55:10.543Z,26.38
2023-03-26T06:57:39.664Z,18.38
2023-03-26T07:00:09.344Z,19.00
2023-03-26T07:02:38.379Z,22.77
2023-03-26T07:05:07.655Z,26.10
2023-03-26T07:07:45.978Z,28.70
2023-03-26T07:10:15.877Z,25.85
2023-03-26T07:12:53.810Z,27.88
2023-03-26T07:15:22.812Z,29.48
2023-03-26T07:17:51.942Z,26.85
2023-03-26T07:22:49.210Z,26.77
2023-03-26T07:25:31.361Z,25.85
2023-03-26T07:28:09.058Z,39.38
2023-03-26T07:30:47.053Z,33.75
2023-03-26T07:33:27.248Z,28.23
2023-03-26T07:36:06.278Z,35.83
2023-03-26T07:38:46.452Z,35.75
2023-03-26T07:41:46.340Z,36.13
2023-03-26T07:44:36.879Z,33.22
2023-03-26T07:47:30.007Z,35.22
2023-03-26T07:50:21.529Z,36.38
2023-03-26T07:52:50.810Z,40.30
2023-03-26T07:55:50.513Z,32.20
2023-03-26T07:58:22.559Z,40.78
2023-03-26T08:00:58.902Z,42.90
2023-03-26T08:03:39.289Z,37.28
2023-03-26T08:06:34.473Z,38.65
2023-03-26T08:09:17.021Z,39.28
2023-03-26T08:11:53.683Z,38.92
2023-03-26T08:14:33.910Z,40.95
2023-03-26T08:17:26.321Z,34.85
2023-03-26T08:20:17.296Z,37.63
2023-03-26T08:22:50.992Z,21.67
2023-03-26T08:25:23.469Z,19.52
2023-03-26T08:28:04.379Z,16.02
2023-03-26T08:30:31.848Z,22.77
2023-03-26T08:33:05.321Z,18.55
2023-03-26T08:35:35.246Z,20.83
2023-03-26T08:38:02.568Z,21.80
2023-03-26T08:41:02.614Z,18.90
2023-03-26T08:43:38.674Z,26.13
2023-03-26T08:46:09.043Z,27.15
2023-03-26T08:49:10.047Z,26.30
2023-03-26T08:51:58.864Z,22.60
2023-03-26T08:54:29.615Z,30.88
2023-03-26T08:57:11.612Z,28.90
2023-03-26T08:59:53.572Z,29.33
2023-03-26T09:02:39.963Z,29.70
2023-03-26T09:05:20.449Z,25.58
2023-03-26T09:08:00.351Z,24.10
2023-03-26T09:10:31.399Z,32.30
2023-03-26T09:13:36.260Z,33.33
2023-03-26T09:16:22.631Z,25.70
2023-03-26T09:19:07.282Z,34.33
2023-03-26T09:21:38.100Z,31.05
2023-03-26T09:24:16.813Z,23.75
2023-03-26T09:27:05.521Z,35.08
2023-03-26T09:29:36.213Z,30.30
2023-03-26T09:32:16.022Z,29.27
2023-03-26T09:35:13.256Z,27.08
2023-03-26T09:37:56.879Z,27.90
2023-03-26T09:40:37.098Z,20.35
2023-03-26T09:43:35.105Z,25.60
2023-03-26T09:46:29.205Z,23.30
2023-03-26T09:49:04.326Z,24.30
2023-03-26T09:51:46.757Z,29.48
2023-03-26T09:54:18.226Z,25.30
2023-03-26T09:56:59.553Z,22.80
2023-03-26T09:59:55.718Z,20.63
2023-03-26T10:02:46.772Z,16.48
2023-03-26T10:05:18.312Z,26.77
2023-03-26T10:08:01.620Z,27.08
2023-03-26T10:10:36.633Z,25.50
2023-03-26T10:13:23.834Z,27.70
2023-03-26T10:15:54.661Z,28.35
2023-03-26T10:18:30.028Z,25.85
2023-03-26T10:21:07.055Z,21.52
2023-03-26T10:23:37.513Z,24.83
2023-03-26T10:26:19.887Z,31.83
2023-03-26T10:29:00.264Z,34.45
2023-03-26T10:31:37.151Z,26.85
2023-03-26T10:34:08.150Z,30.20
2023-03-26T10:36:55.629Z,28.42
2023-03-26T10:39:37.029Z,31.35
2023-03-26T10:42:16.426Z,30.50
2023-03-26T10:44:53.769Z,26.40
2023-03-26T10:47:40.421Z,24.50
2023-03-26T10:50:11.112Z,13.98
2023-03-26T10:52:46.203Z,16.98
2023-03-26T10:55:19.241Z,23.15
2023-03-26T10:57:52.888Z,18.95
2023-03-26T11:00:24.755Z,18.20
2023-03-26T11:03:31.809Z,17.17
2023-03-26T11:06:09.407Z,17.90
2023-03-26T11:08:45.072Z,20.40
2023-03-26T11:11:18.592Z,27.98
2023-03-26T11:13:54.470Z,17.50
2023-03-26T11:16:33.154Z,23.08
2023-03-26T11:19:11.743Z,16.10
2023-03-26T11:21:50.753Z,13.93
2023-03-26T11:24:46.534Z,14.73
2023-03-26T11:27:27.521Z,15.93
2023-03-26T11:30:03.594Z,20.92
2023-03-26T11:32:42.468Z,16.45
2023-03-26T11:35:17.570Z,18.77
2023-03-26T11:38:12.348Z,14.35
2023-03-26T11:40:42.864Z,13.73
2023-03-26T11:43:23.088Z,13.27
2023-03-26T11:45:51.937Z,14.25
2023-03-26T11:48:26.537Z,18.55
2023-03-26T11:51:02.618Z,15.38
2023-03-26T11:53:34.726Z,18.52
2023-03-26T11:56:14.968Z,16.02
2023-03-26T11:58:52.260Z,14.82
2023-03-26T12:01:30.453Z,18.55
2023-03-26T12:04:04.403Z,16.08
2023-03-26T12:06:33.080Z,17.80
2023-03-26T12:09:00.329Z,19.65
2023-03-26T12:11:34.622Z,17.77
2023-03-26T12:14:05.118Z,11.10
2023-03-26T12:16:32.415Z,16.33
2023-03-26T12:19:05.568Z,14.85
2023-03-26T12:21:44.158Z,14.15
2023-03-26T12:24:29.409Z,17.48
2023-03-26T12:27:02.770Z,17.65
2023-03-26T12:29:34.503Z,23.15
2023-03-26T12:32:06.101Z,23.15
2023-03-26T12:34:36.345Z,24.00
2023-03-26T12:37:06.167Z,19.92
2023-03-26T12:40:07.500Z,21.30
2023-03-26T12:44:55.268Z,23.63
2023-03-26T12:45:23.835Z,16.90
2023-03-26T12:47:58.828Z,17.13
2023-03-26T12:50:40.878Z,19.38
2023-03-26T12:53:17.978Z,21.40
2023-03-26T12:55:56.629Z,26.70
2023-03-26T12:58:27.100Z,21.65
2023-03-26T13:01:22.692Z,36.10
2023-03-26T13:04:01.772Z,27.08
2023-03-26T13:06:59.402Z,27.52
2023-03-26T13:09:37.936Z,23.80
2023-03-26T13:12:19.297Z,25.10
2023-03-26T13:14:55.842Z,23.10
2023-03-26T13:17:37.205Z,25.35
2023-03-26T13:20:13.462Z,24.90
2023-03-26T13:22:48.560Z,24.38
2023-03-26T13:25:22.064Z,23.77
2023-03-26T13:27:58.639Z,21.45
2023-03-26T13:30:38.305Z,23.38
2023-03-26T13:33:19.857Z,21.67
2023-03-26T13:36:10.252Z,23.98
2023-03-26T13:38:58.808Z,32.30
2023-03-26T13:41:36.650Z,26.88
2023-03-26T13:44:11.858Z,38.72
2023-03-26T13:46:44.811Z,40.45
2023-03-26T13:49:15.798Z,36.57
2023-03-26T13:51:50.412Z,28.85
2023-03-26T13:54:27.800Z,33.10
2023-03-26T13:57:07.641Z,30.00
2023-03-26T13:59:43.814Z,34.95
2023-03-26T14:02:20.454Z,32.00
2023-03-26T14:04:54.442Z,34.55
2023-03-26T14:07:26.578Z,41.85
2023-03-26T14:10:00.491Z,44.70
2023-03-26T14:12:34.199Z,33.40
2023-03-26T14:17:41.614Z,32.38
2023-03-26T14:20:24.176Z,38.22
2023-03-26T14:23:06.843Z,34.60
2023-03-26T14:25:37.807Z,30.80
2023-03-26T14:28:22.006Z,27.35
2023-03-26T14:30:54.608Z,29.40
2023-03-26T14:33:30.377Z,40.78
2023-03-26T14:36:01.559Z,31.83
2023-03-26T14:38:37.185Z,27.73
2023-03-26T14:41:16.406Z,29.73
2023-03-26T14:43:47.250Z,25.65
2023-03-26T14:46:34.184Z,21.10
2023-03-26T14:49:08.799Z,17.98
2023-03-26T14:51:50.398Z,21.42
2023-03-26T14:54:23.645Z,16.63
2023-03-26T14:57:07.906Z,19.60
2023-03-26T14:59:38.667Z,18.88
2023-03-26T15:02:27.712Z,18.27
2023-03-26T15:05:16.779Z,17.88
2023-03-26T15:08:05.838Z,22.13
2023-03-26T15:10:36.374Z,19.00
2023-03-26T15:13:10.826Z,27.67
2023-03-26T15:15:53.891Z,24.38
2023-03-26T15:20:54.343Z,20.42
2023-03-26T15:23:53.450Z,20.73
2023-03-26T15:26:48.671Z,22.27
2023-03-26T15:29:28.244Z,23.08
2023-03-26T15:32:03.286Z,22.08
2023-03-26T15:34:42.492Z,22.58
2023-03-26T15:37:23.200Z,22.08
2023-03-26T15:40:17.901Z,17.95
2023-03-26T15:42:51.586Z,20.33
2023-03-26T15:45:22.704Z,20.55
2023-03-26T15:47:54.251Z,18.50
2023-03-26T15:50:28.800Z,16.88
2023-03-26T15:53:07.659Z,17.38
2023-03-26T15:55:46.131Z,16.08
2023-03-26T15:58:21.539Z,14.70
2023-03-26T16:01:03.187Z,19.25
2023-03-26T16:03:39.616Z,14.93
2023-03-26T16:06:10.111Z,17.33
2023-03-26T16:08:47.272Z,16.73
2023-03-26T16:11:15.603Z,24.13
2023-03-26T16:13:49.918Z,16.40
2023-03-26T16:16:22.848Z,21.33
2023-03-26T16:18:58.478Z,21.97
2023-03-26T16:21:45.956Z,19.17
2023-03-26T16:24:21.827Z,15.55
2023-03-26T16:26:59.800Z,16.08
2023-03-26T16:29:30.190Z,19.23
2023-03-26T16:32:01.710Z,21.35
2023-03-26T16:34:39.326Z,23.10
2023-03-26T16:37:28.140Z,19.30
2023-03-26T16:40:16.730Z,18.40
2023-03-26T16:42:55.164Z,19.58
2023-03-26T16:45:32.091Z,12.15
2023-03-26T16:48:17.289Z,13.20
2023-03-26T16:50:55.059Z,16.83
2023-03-26T16:53:33.366Z,15.02
2023-03-26T16:56:11.970Z,13.82
2023-03-26T16:58:40.965Z,17.35
2023-03-26T17:01:16.152Z,13.45
2023-03-26T17:04:02.660Z,15.52
2023-03-26T17:06:38.820Z,15.40
2023-03-26T17:09:34.700Z,19.95
2023-03-26T17:12:14.324Z,19.88
2023-03-26T17:14:59.700Z,20.63
2023-03-26T17:17:41.556Z,13.05
2023-03-26T17:20:18.786Z,21.00
2023-03-26T17:22:52.332Z,18.20
2023-03-26T17:25:31.008Z,15.32
2023-03-26T17:28:28.671Z,14.93
2023-03-26T17:31:02.471Z,18.38
2023-03-26T17:36:02.052Z,12.98
2023-03-26T17:39:09.110Z,15.02
2023-03-26T17:41:39.320Z,20.05
2023-03-26T17:44:28.041Z,19.85
2023-03-26T17:46:57.094Z,18.50
2023-03-26T17:49:31.250Z,22.40
2023-03-26T17:52:03.970Z,16.17
2023-03-26T17:54:34.829Z,21.48
2023-03-26T17:57:07.176Z,17.83
2023-03-26T17:59:38.693Z,14.60
2023-03-26T18:02:15.677Z,18.55
2023-03-26T18:04:48.022Z,15.32
2023-03-26T18:07:36.873Z,20.08
2023-03-26T18:10:33.522Z,23.65
2023-03-26T18:13:08.732Z,14.60
2023-03-26T18:15:48.406Z,15.05
2023-03-26T18:18:22.613Z,19.20
2023-03-26T18:20:51.542Z,20.83
2023-03-26T18:23:25.992Z,21.67
2023-03-26T18:25:58.408Z,13.55
2023-03-26T18:28:29.025Z,17.33
2023-03-26T18:31:06.844Z,21.85
2023-03-26T18:33:43.849Z,20.67
2023-03-26T18:36:12.461Z,15.25
2023-03-26T18:38:42.422Z,19.30
2023-03-26T18:41:22.781Z,20.25
2023-03-26T18:43:50.278Z,20.33
2023-03-26T18:46:17.502Z,22.40
2023-03-26T18:48:46.360Z,29.48
2023-03-26T18:51:16.189Z,16.90
2023-03-26T18:53:52.283Z,21.48
2023-03-26T18:56:23.248Z,22.30
2023-03-26T18:58:51.690Z,25.77
2023-03-26T19:01:25.823Z,23.55
2023-03-26T19:03:54.372Z,26.27
2023-03-26T19:06:23.488Z,24.63
2023-03-26T19:08:52.420Z,27.15
2023-03-26T19:11:19.731Z,23.80
2023-03-26T19:13:59.786Z,28.65
2023-03-26T19:16:33.860Z,33.92
2023-03-26T19:19:05.490Z,32.35
2023-03-26T19:21:34.679Z,19.98
2023-03-26T19:24:03.936Z,23.15
2023-03-26T19:26:31.892Z,22.00
2023-03-26T19:29:00.788Z,23.63
2023-03-26T19:31:36.267Z,19.90
2023-03-26T19:34:24.069Z,23.02
2023-03-26T19:36:57.387Z,21.00
2023-03-26T19:39:37.127Z,21.55
2023-03-26T19:42:06.669Z,23.15
2023-03-26T19:44:39.730Z,20.00
2023-03-26T19:47:16.253Z,19.58
2023-03-26T19:49:53.356Z,20.10
2023-03-26T19:52:25.490Z,18.35
2023-03-26T19:54:59.660Z,24.30
2023-03-26T19:57:31.005Z,22.02
2023-03-26T19:59:59.065Z,27.02
2023-03-26T20:02:27.187Z,24.77
2023-03-26T20:04:54.671Z,25.30
2023-03-26T20:07:35.787Z,17.38
2023-03-26T20:10:05.801Z,24.77
2023-03-26T20:12:33.637Z,22.25
2023-03-26T20:15:02.240Z,19.92
2023-03-26T20:17:31.126Z,26.15
2023-03-26T20:19:59.090Z,19.15
2023-03-26T20:22:26.947Z,31.85
2023-03-26T20:24:54.902Z,23.65
2023-03-26T20:27:22.614Z,18.70
2023-03-26T20:29:49.857Z,26.17
2023-03-26T20:32:23.732Z,29.30
2023-03-26T20:34:53.182Z,23.35
2023-03-26T20:37:20.282Z,20.55
2023-03-26T20:39:47.466Z,26.65
2023-03-26T20:42:15.998Z,29.30
2023-03-26T20:44:43.717Z,26.88
2023-03-26T20:47:11.728Z,23.15
2023-03-26T20:49:39.061Z,25.20
2023-03-26T20:52:06.319Z,25.85
2023-03-26T20:54:33.672Z,25.92
2023-03-26T20:57:02.437Z,30.02
2023-03-26T20:59:30.412Z,20.85
2023-03-26T21:01:59.632Z,26.23
2023-03-26T21:04:27.841Z,26.00
2023-03-26T21:07:06.698Z,30.20
2023-03-26T21:09:39.513Z,22.38
2023-03-26T21:12:09.703Z,28.73
2023-03-26T21:14:41.430Z,29.15
2023-03-26T21:17:16.300Z,32.78
2023-03-26T21:19:44.316Z,31.02
2023-03-26T21:22:14.767Z,31.38
2023-03-26T21:24:49.935Z,27.33
2023-03-26T21:27:26.461Z,32.13
2023-03-26T21:29:55.587Z,31.08
2023-03-26T21:32:23.159Z,34.88
2023-03-26T21:34:58.571Z,31.95
2023-03-26T21:37:27.766Z,33.20
2023-03-26T21:39:55.160Z,31.13
2023-03-26T21:42:26.874Z,30.13
2023-03-26T21:44:54.660Z,30.95
2023-03-26T21:47:22.091Z,26.75
2023-03-26T21:49:49.717Z,39.17
2023-03-26T21:52:17.130Z,37.05
2023-03-26T21:54:44.840Z,36.55
2023-03-26T21:57:15.128Z,33.22
2023-03-26T22:00:08.409Z,30.17
2023-03-26T22:02:54.692Z,28.50
2023-03-26T22:05:31.261Z,34.78
2023-03-26T22:08:02.194Z,35.03
2023-03-26T22:10:31.000Z,38.35
2023-03-26T22:12:59.554Z,33.47
2023-03-26T22:15:30.585Z,31.55
2023-03-26T22:18:01.104Z,34.63
2023-03-26T22:20:28.533Z,35.65
2023-03-26T22:22:55.998Z,40.95
2023-03-26T22:25:24.473Z,32.85
2023-03-26T22:27:52.115Z,33.45
2023-03-26T22:30:21.044Z,31.25
2023-03-26T22:32:48.953Z,30.52
2023-03-26T22:35:16.734Z,35.25
2023-03-26T22:37:43.978Z,31.25
2023-03-26T22:40:14.023Z,33.88
2023-03-26T22:42:42.041Z,28.52
2023-03-26T22:45:10.273Z,20.63
2023-03-26T22:47:38.515Z,32.92
2023-03-26T22:50:08.125Z,23.00
2023-03-26T22:52:36.929Z,27.33
2023-03-26T22:55:05.510Z,23.83
2023-03-26T22:57:32.820Z,26.05
2023-03-26T23:00:12.325Z,26.05
2023-03-26T23:02:40.624Z,29.27
2023-03-26T23:05:08.236Z,25.10
2023-03-26T23:07:35.495Z,20.65
2023-03-26T23:10:02.672Z,21.77
2023-03-26T23:12:29.986Z,23.63
2023-03-26T23:14:58.011Z,20.15
2023-03-26T23:17:25.321Z,18.27
2023-03-26T23:19:52.464Z,22.35
2023-03-26T23:22:19.852Z,17.30
2023-03-26T23:24:46.993Z,22.80
2023-03-26T23:27:14.225Z,20.52
2023-03-26T23:29:42.653Z,24.33
2023-03-26T23:32:23.476Z,18.42
2023-03-26T23:34:52.675Z,14.70
2023-03-26T23:37:23.444Z,25.88
2023-03-26T23:39:52.051Z,23.45
2023-03-26T23:42:29.242Z,17.20
2023-03-26T23:44:57.732Z,22.05
2023-03-26T23:47:25.031Z,23.85
2023-03-26T23:49:52.314Z,17.63
2023-03-26T23:52:19.482Z,19.42
2023-03-26T23:54:47.470Z,20.92
2023-03-26T23:57:14.741Z,21.00
2023-03-26T23:59:42.034Z,21.50
